x

9442396 - La Push, Wa (lapw1) Weather Station

12:30 - Tue 24th Jan 2017 All times are PST. -8 hours from GMT.

  • Wind
    9mph, 11mph gusts
  • Sea Temp 43°f
  • Air Temp 33°f
  • Sea Pressure 1016.9mb
  • 9442396 - La Push, Wa
  • 9442396 - La Push, Wa

More Historic Weather Station data

Upgrade to MSW Pro to gain access to the past 30 days of data for over 8000 Wavebouys and Weather Stations around the globe.

Join Pro

Comparision Forecast

View Surf forecast
   
mar. 01/24 12:30 9 11 mph 1016.9mb 43f 33f
12:24 9 11 mph 1016.9mb 44f 33f
12:18 9 13 mph 1016.9mb 44f 33f
12:12 9 11 mph 1016.9mb 44f 33f
12:06 9 11 mph 1017mb 44f 33f
12:00 9 10 mph 1017mb 44f 33f
lun. 01/23 11:36 8 11 mph 1016.9mb 45f 33f
11:30 9 11 mph 1016.8mb 45f 33f
11:24 9 11 mph 1016.8mb 45f 34f
11:18 8 10 mph 1016.7mb 45f 34f
11:12 9 10 mph 1016.7mb 45f 34f
11:06 8 10 mph 1016.7mb 45f 34f
11:00 8 10 mph 1016.6mb 45f 34f
10:36 8 11 mph 1016.4mb 45f 35f
10:30 9 10 mph 1016.3mb 45f 35f
10:24 9 10 mph 1016.2mb 45f 35f
10:18 8 10 mph 1016.2mb 45f 35f
10:12 8 10 mph 1016.1mb 45f 35f
10:06 8 10 mph 1016.1mb 45f 35f
10:00 6 10 mph 1016.1mb 45f 35f
9:36 6 8 mph 1015.8mb 44f 36f
9:30 5 8 mph 1015.7mb 44f 36f
9:24 5 8 mph 1015.7mb 44f 36f
9:18 5 8 mph 1015.7mb 44f 36f
9:12 3 8 mph 1015.6mb 44f 37f
9:06 5 8 mph 1015.5mb 44f 37f
9:00 6 8 mph 1015.5mb 44f 37f
8:36 6 8 mph 1015.3mb 44f 37f
8:30 5 9 mph 1015.3mb 44f 37f
8:24 3 7 mph 1015.3mb 44f 38f
8:18 6 8 mph 1015.2mb 44f 38f
8:12 5 6 mph 1015.1mb 44f 37f
8:06 5 7 mph 1015mb 43f 37f
8:00 5 6 mph 1014.9mb 43f 37f
7:36 3 5 mph 1014.7mb 41f 37f
7:30 2 3 mph 1014.6mb 41f 37f
7:24 2 3 mph 1014.6mb 40f 37f
7:18 1 2 mph 1014.6mb 40f 38f
7:12  -  2 mph 1014.5mb 40f 38f
7:06 1 2 mph 1014.4mb 40f 38f
7:00 2
mph
1014.3mb 40f 38f
6:36  -  2 mph 1014.3mb 40f 41f
6:30  -  3 mph 1014.2mb 40f 41f
6:24  -  3 mph 1014.2mb 40f 41f
6:18  -  3 mph 1014.1mb 40f 42f
6:12  -  3 mph 1014mb 41f 43f
6:06 3 6 mph 1014mb 40f 45f
6:00 5 6 mph 1013.9mb 40f 46f
5:36 5 7 mph 1013.7mb 40f 45f
5:30 3 6 mph 1013.6mb 41f 46f
5:24 5 6 mph 1013.6mb 41f 46f
5:18 5 6 mph 1013.5mb 41f 47f
5:12 5 6 mph 1013.4mb 41f 47f
5:06 5 6 mph 1013.3mb 41f 47f
5:00 7 9 mph 1013.2mb 40f 47f
4:36 9 11 mph 1013.1mb 41f 47f
4:30 10 11 mph 1013mb 41f 47f
4:24 10 13 mph 1012.9mb 41f 47f
4:18 9 11 mph 1012.8mb 41f 47f
4:12 8 10 mph 1012.7mb 41f 47f
4:06 8 10 mph 1012.6mb 41f 47f
4:00 8 9 mph 1012.6mb 41f 47f
3:36 8 10 mph 1012.3mb 41f 47f
3:30 8 11 mph 1012.2mb 41f 47f
3:24 8 10 mph 1012.2mb 41f 47f
3:18 9 10 mph 1012.1mb 41f 47f
3:12 8 11 mph 1012mb 41f 47f
3:06 9 11 mph 1011.9mb 41f 47f
3:00 9 11 mph 1011.8mb 41f 48f
2:36 1 2 mph 1011.4mb 41f 51f
2:30 1 2 mph 1011.3mb 41f 51f
2:24  -  1 mph 1011.3mb 41f 49f
2:18 1 2 mph 1011.2mb 41f 48f
2:12 2 5 mph 1011.2mb 41f 47f
2:06 5 7 mph 1011.2mb 41f 47f
2:00 5 7 mph 1011.2mb 41f 47f
1:36 7
mph
1011mb 40f 49f
1:30 3 5 mph 1011mb 39f 50f
1:24 2 3 mph 1011mb 39f 50f
1:18  -  6 mph 1010.9mb 39f 50f
1:12 3 5 mph 1010.9mb 39f 50f
1:06 2 6 mph 1010.9mb 39f 49f
1:00 5 7 mph 1010.7mb 39f 49f
12:36 5 8 mph 1010.5mb 41f 48f
12:30 5 9 mph 1010.5mb 41f 48f
12:24 6 10 mph 1010.4mb 42f 48f
12:18 7 10 mph 1010.4mb 42f 48f
12:12 7 11 mph 1010.4mb 42f 47f
12:06 8 11 mph 1010.4mb 42f 47f
12:00 6 9 mph 1010.3mb 42f 47f
11:36 7 10 mph 1010.2mb 44f 46f
11:30 6 13 mph 1010.2mb 44f 45f
11:24 7 10 mph 1010.2mb 44f 45f
11:18 7 8 mph 1010.2mb 44f 44f
11:12 8 10 mph 1010.2mb 44f 44f
11:06 8 10 mph 1010.1mb 45f 44f
11:00 7 8 mph 1010.1mb 44f 44f
10:36 7 9 mph 1010mb 45f 42f
10:30 7 10 mph 1009.9mb 45f 42f
10:24 8 10 mph 1009.9mb 45f 41f
10:18 7 10 mph 1009.9mb 45f 41f
10:12 8 10 mph 1009.8mb 45f 40f
10:06 8 11 mph 1009.7mb 45f 40f
10:00 9 11 mph 1009.6mb 45f 39f
9:36 9 11 mph 1009.2mb 45f 38f
9:30 9 13 mph 1009.1mb 45f 37f
9:24 8 10 mph 1009mb 45f 37f
9:18 8 10 mph 1008.9mb 45f 37f
9:12 8 10 mph 1008.8mb 45f 37f
9:06 8 11 mph 1008.7mb 45f 37f
9:00 9 11 mph 1008.6mb 45f 36f
8:36 9 11 mph 1008.1mb 45f 35f
8:30 8 10 mph 1008.1mb 45f 35f
8:24 8 10 mph 1008mb 45f 35f
8:18 8 9 mph 1007.8mb 45f 35f
8:12 8 10 mph 1007.7mb 45f 35f
8:06 7 10 mph 1007.6mb 45f 35f
8:00 7 10 mph 1007.5mb 45f 35f
7:36 8 11 mph 1007mb 45f 35f
7:30 8 10 mph 1006.9mb 45f 35f
7:24 8 13 mph 1006.8mb 45f 35f
7:18 8 10 mph 1006.7mb 45f 35f
7:12 7 9 mph 1006.7mb 45f 35f
7:06 8 10 mph 1006.6mb 45f 35f
7:00 8 11 mph 1006.5mb 45f 35f
6:36 9 11 mph 1006.1mb 45f 35f
6:30 9 11 mph 1006mb 45f 35f
6:24 8 11 mph 1005.8mb 45f 35f
6:18 8 11 mph 1005.6mb 45f 35f
6:12 9 11 mph 1005.6mb 45f 35f
6:06 9 13 mph 1005.5mb 45f 35f
6:00 9 11 mph 1005.4mb 45f 35f
5:36 8 11 mph 1005mb 45f 35f
5:30 8 13 mph 1004.9mb 45f 35f
5:24 8 11 mph 1004.8mb 45f 35f
5:18 8 11 mph 1004.8mb 45f 36f
5:12 8 11 mph 1004.7mb 45f 36f
5:06 8 11 mph 1004.6mb 44f 36f
5:00 7 10 mph 1004.6mb 44f 36f
4:30 7 10 mph 1004.1mb 43f 36f
4:24 7 9 mph 1004mb 43f 36f
4:18 7 10 mph 1003.9mb 43f 36f
4:12 8 10 mph 1004mb 43f 36f
4:06 6 10 mph 1003.9mb 42f 37f
4:00 8 10 mph 1003.8mb 42f 37f
3:36 6 10 mph 1003.8mb 41f 37f
3:30 6 9 mph 1003.8mb 42f 37f
3:24 7 9 mph 1003.8mb 41f 37f
3:18 7 10 mph 1003.8mb 41f 37f
3:12 7 9 mph 1003.7mb 41f 37f
3:06 7 9 mph 1003.7mb 41f 37f
3:00 7 9 mph 1003.5mb 41f 37f
2:36 6 10 mph 1003.2mb 41f 37f
2:30 7 9 mph 1003.2mb 41f 37f
2:24 6 10 mph 1003.1mb 41f 37f
2:18 7 10 mph 1003mb 41f 37f
2:12 6 10 mph 1002.9mb 41f 37f
2:06 6 10 mph 1002.9mb 41f 37f
2:00 7 11 mph 1002.9mb 41f 37f
1:36 8 11 mph 1002.5mb 41f 37f
1:30 7 10 mph 1002.5mb 41f 37f
1:24 7 10 mph 1002.4mb 41f 37f
1:18 7 11 mph 1002.3mb 41f 37f
1:12 7 9 mph 1002.3mb 41f 37f
1:06 7 11 mph 1002.2mb 42f 37f
1:00 8 10 mph 1002.2mb 42f 37f
12:54 7 11 mph 1002.2mb 42f 37f
12:48 8 13 mph 1002.2mb 42f 37f
12:36 6 10 mph 1002.1mb 42f 37f
12:30 7 10 mph 1002.1mb 42f 37f
12:24 8 10 mph 1002.1mb 42f 37f
12:18 7 9 mph 1002.1mb 43f 37f
12:12 7 10 mph 1002.2mb 43f 37f
12:06 7 11 mph 1002.1mb 43f 37f
12:00 6 9 mph 1002.1mb 43f 37f
dim. 01/22 11:54 6 9 mph 1002mb 43f 37f
11:48 6 10 mph 1001.9mb 44f 37f
11:36 7 9 mph 1001.8mb 44f 37f
11:30 6 8 mph 1001.8mb 44f 37f
11:24 7 11 mph 1001.7mb 44f 37f
11:18 7 9 mph 1001.6mb 44f 37f
11:12 6 10 mph 1001.5mb 44f 37f
11:06 7 10 mph 1001.4mb 44f 37f
11:00 7 10 mph 1001.3mb 44f 38f
10:54 7 11 mph 1001.3mb 44f 38f
10:48 7 10 mph 1001.3mb 44f 38f
10:36 7 9 mph 1001.2mb 44f 38f
10:30 7 10 mph 1001.1mb 44f 38f
10:24 6 9 mph 1001.1mb 44f 38f
10:18 7 11 mph 1001mb 44f 38f
10:12 7 10 mph 1000.9mb 44f 38f
10:06 6 10 mph 1000.9mb 44f 38f
10:00 8 10 mph 1000.8mb 44f 38f
9:54 8 11 mph 1000.7mb 44f 39f
9:48 8 11 mph 1000.7mb 44f 39f
9:36 6 10 mph 1000.6mb 44f 39f
9:30 7 10 mph 1000.5mb 44f 39f
9:24 7 10 mph 1000.6mb 44f 39f
9:18 7 9 mph 1000.6mb 44f 39f
9:12 6 8 mph 1000.5mb 44f 39f
9:06 6 8 mph 1000.5mb 44f 39f
9:00 6 9 mph 1000.4mb 44f 39f
8:54 7 10 mph 1000.3mb 44f 39f
8:48 7 9 mph 1000.2mb 44f 39f
8:36 5 7 mph 1000.2mb 44f 40f
8:30 6 7 mph 1000.2mb 44f 40f
8:24 5 7 mph 1000.3mb 44f 40f
8:18 3 6 mph 1000.3mb 44f 41f
8:12 2 5 mph 1000.4mb 44f 41f
8:06 2 6 mph 1000.4mb 44f 41f
8:00 5 6 mph 1000.3mb 44f 42f
7:54 3 8 mph 1000.3mb 44f 42f
7:48 6 8 mph 1000.3mb 43f 40f
7:36 5 6 mph 1000.2mb 43f 40f
7:30 5 6 mph 999.9mb 42f 40f
7:24 3 5 mph 999.7mb 42f 40f
7:18 2 5 mph 999.7mb 42f 40f
7:12 2 5 mph 999.7mb 42f 40f
7:06 3 7 mph 999.7mb 41f 41f
7:00 6 8 mph 999.7mb 41f 41f
6:54 5 7 mph 999.9mb 41f 41f
6:48 3 7 mph 999.8mb 41f 42f
6:36 5 9 mph 999.8mb 41f 40f
6:30 2 10 mph 999.6mb 41f 40f
6:24 3 8 mph 999.4mb 41f 40f
6:18 5 9 mph 999.3mb 41f 40f
6:12 3 8 mph 999.1mb 41f 40f
6:06 6 9 mph 999mb 41f 40f
6:00 6 9 mph 999mb 41f 40f
5:54 6 10 mph 998.9mb 41f 40f
5:48 6 11 mph 998.8mb 41f 40f
5:36 7 11 mph 999.1mb 41f 40f
5:30 7 11 mph 999.1mb 41f 40f
5:24 7 11 mph 999.2mb 41f 40f
5:18 7 10 mph 999.2mb 41f 41f
5:12 7 11 mph 999.2mb 41f 41f
5:06 5 10 mph 999.3mb 41f 41f
5:00 6 10 mph 999.3mb 41f 41f
4:54 7 14 mph 999.2mb 41f 41f
4:48 6 17 mph 999.2mb 41f 42f
4:36 7 15 mph 999.2mb 40f 43f
4:30 9 15 mph 999.2mb 40f 43f
4:24 7 20 mph 999.2mb 41f 43f
4:18 9 22 mph 999.2mb 41f 44f
4:12 13 25 mph 999.3mb 41f 45f
4:06 7 11 mph 999mb 40f 46f
4:00 6 10 mph 998.8mb 41f 46f
3:54 6 10 mph 998.6mb 40f 46f
3:48 6 9 mph 998.4mb 41f 46f
3:36 7 11 mph 998.2mb 41f 46f
3:30 6 11 mph 998.1mb 41f 47f
3:24 5 8 mph 998mb 41f 47f
3:18 8 13 mph 998mb 41f 47f
3:12 8 14 mph 998.1mb 41f 47f
3:06 6 10 mph 998mb 41f 46f
3:00 8 14 mph 998.1mb 41f 46f
2:54 9 20 mph 998.1mb 41f 45f
2:48 6 17 mph 998.1mb 41f 45f
2:36 11 18 mph 998.1mb 41f 45f
2:30 7 10 mph 998.2mb 41f 45f
2:24 8 14 mph 998mb 41f 45f
2:18 8 13 mph 997.9mb 41f 45f
2:12 7 11 mph 997.8mb 41f 45f
2:06 6 9 mph 997.8mb 41f 44f
2:00 5 9 mph 997.8mb 41f 44f
1:54 6 13 mph 997.8mb 41f 43f
1:48 6 14 mph 997.8mb 41f 43f
1:36 7 17 mph 998.1mb 41f 42f
1:30 9 18 mph 998.1mb 41f 42f
1:24 15 23 mph 998.2mb 41f 44f
1:18 16 22 mph 998.6mb 41f 45f
1:12 10 28 mph 998mb 41f 45f
1:06 11 24 mph 997.9mb 41f 46f
1:00 9 17 mph 997.8mb 41f 46f
12:54 8 26 mph 997.7mb 41f 46f
12:48 18 28 mph 997.7mb 40f 46f
12:36 7 17 mph 997.5mb 41f 47f
12:30 7 21 mph 997.5mb 41f 47f
12:24 9 20 mph 997.4mb 41f 47f
12:18 13 20 mph 997.2mb 41f 47f
12:12 8 20 mph 997.1mb 41f 47f
12:06 9 21 mph 997.3mb 41f 47f
12:00 8 15 mph 997.2mb 41f 46f
11:54 7 14 mph 997.2mb 41f 46f
11:48 9 16 mph 997.2mb 42f 46f
11:36 10 21 mph 997.3mb 42f 46f
11:30 11 21 mph 997.2mb 42f 46f
11:24 8 11 mph 997.2mb 42f 46f
11:18 8 14 mph 997.2mb 42f 46f
11:12 8 16 mph 997.1mb 42f 46f
11:06 7 14 mph 997.2mb 43f 45f
11:00 6 10 mph 997.1mb 43f 44f
10:54 6 10 mph 997mb 43f 44f
10:48 5 9 mph 997mb 43f 44f
10:24  -  mph 996.7mb 44f -
10:18  -  mph 996.7mb 44f -
10:12  -  mph 996.7mb 45f -
10:06  -  mph 996.6mb 44f -
10:00  -  mph 996.4mb 45f -
9:54  -  mph 996.3mb 45f -
9:48  -  mph 996.3mb 45f -
9:36 7 13 mph 996.1mb 45f 44f
9:30 8 14 mph 996mb 45f 43f
9:24 8 15 mph 995.7mb 45f 43f
9:18 9 18 mph 995.5mb 45f 44f
9:12 10 17 mph 995mb 45f 44f
9:06 5 14 mph 995mb 45f 44f
9:00 8 14 mph 994.8mb 45f 44f
8:36 6 14 mph 994.7mb 45f 42f
8:30 6 10 mph 994.9mb 46f 42f
8:24 3 9 mph 994.9mb 46f 41f
8:18 7 13 mph 994.8mb 45f 41f
8:12 6 10 mph 994.6mb 45f 41f
8:06 5 8 mph 994.6mb 45f 41f
8:00 7 9 mph 994.6mb 45f 41f
7:36 5 7 mph 994.1mb 45f 42f
7:30 5 8 mph 994mb 45f 42f
7:24 5 11 mph 994.4mb 45f 42f
7:18 6 16 mph 994.6mb 45f 42f
7:12 3 11 mph 994.4mb 45f 42f
7:06 8 10 mph 994.5mb 45f 40f
7:00 2 10 mph 994.1mb 45f 40f
6:54 6 10 mph 993.4mb 45f 40f
6:48 7 10 mph 993.1mb 44f 40f
6:36 6 11 mph 992.8mb 44f 40f
6:30 8 11 mph 992.7mb 44f 40f
6:24 7 10 mph 992.7mb 45f 40f
6:18 6 10 mph 992.8mb 44f 40f
6:12 8 11 mph 992.8mb 44f 39f
6:06 6 10 mph 993mb 44f 39f
6:00 6 13 mph 992.9mb 44f 39f
5:54 7 11 mph 992.8mb 44f 39f
5:48 8 11 mph 992.7mb 44f 39f
5:36 7 11 mph 992.8mb 44f 39f
5:30 8 11 mph 992.9mb 43f 39f
5:24 6 8 mph 993mb 43f 39f
5:18 6 13 mph 993.1mb 43f 38f
5:12 8 11 mph 993.1mb 42f 38f
5:06 7 11 mph 993.3mb 42f 39f
5:00 7 11 mph 993.4mb 42f 39f
4:54 7 11 mph 993.4mb 41f 39f
4:48 7 11 mph 993.5mb 41f 39f
4:36 7 11 mph 993.5mb 41f 39f
4:30 8 13 mph 993.7mb 41f 39f
4:24 7 11 mph 993.9mb 41f 38f
4:18 7 10 mph 994.1mb 41f 38f
4:12 7 9 mph 994.3mb 41f 38f
4:06 7 10 mph 994.5mb 41f 38f
4:00 8 11 mph 994.6mb 41f 38f
3:54 7 10 mph 994.8mb 41f 38f
3:48 8 11 mph 995mb 41f 38f
3:36 6 9 mph 995.3mb 41f 38f
3:30 7 10 mph 995.4mb 41f 38f
3:24 6 9 mph 995.4mb 41f 38f
3:18 6 9 mph 995.7mb 41f 38f
3:12 5 8 mph 995.9mb 41f 38f
3:06 6 11 mph 996.1mb 41f 38f
3:00 8 13 mph 996.2mb 41f 39f
2:54 8 13 mph 996.4mb 41f 39f
2:48 9 14 mph 996.5mb 41f 39f
2:36 9 13 mph 996.8mb 41f 38f
2:30 7 11 mph 997.1mb 41f 38f
2:24 6 9 mph 997.5mb 41f 38f
2:18 7 10 mph 997.6mb 41f 38f
2:12 7 10 mph 997.8mb 41f 39f
2:06 6 8 mph 997.8mb 41f 39f
2:00 6 9 mph 997.8mb 41f 39f
1:54 6 8 mph 997.9mb 41f 39f
1:48 6 10 mph 997.9mb 41f 39f
1:36 6 8 mph 998.1mb 41f 39f
1:30 6 8 mph 998mb 41f 39f
1:24 3 6 mph 998.2mb 40f 39f
1:18 5 7 mph 998.4mb 41f 40f
1:12 5 6 mph 998.6mb 41f 40f
1:06 5 7 mph 998.6mb 41f 40f
1:00 5 7 mph 998.7mb 41f 40f
12:54 5 6 mph 998.9mb 41f 40f
12:48 5 7 mph 999.1mb 41f 40f
12:36 6 8 mph 999.2mb 41f 41f
12:30 6 10 mph 999.2mb 41f 42f
12:24 5 8 mph 999.2mb 41f 42f
12:18 5 10 mph 999.2mb 41f 42f
12:12 6 7 mph 999.2mb 41f 41f
12:06 5 8 mph 999.3mb 41f 41f
12:00 6 9 mph 999.4mb 41f 41f
sam. 01/21 11:54 6 9 mph 999.5mb 40f 41f
11:48 6 8 mph 999.5mb 41f 41f
11:36 5 8 mph 999.6mb 41f 40f
11:30 6 9 mph 999.7mb 41f 40f
11:24 5 8 mph 999.7mb 41f 40f
11:18 6 10 mph 999.7mb 41f 40f
11:12 6 8 mph 999.6mb 41f 40f
11:06 6 8 mph 999.7mb 41f 40f
11:00 5 8 mph 999.6mb 41f 40f
10:54 6 9 mph 999.5mb 41f 40f
10:48 6 8 mph 999.5mb 41f 40f
10:36 6 9 mph 999.5mb 41f 41f
10:30 5 6 mph 999.5mb 41f 41f
10:24 3 6 mph 999.5mb 41f 41f
10:18 3 5 mph 999.5mb 41f 42f
10:12 2 3 mph 999.4mb 41f 42f
10:06 3 5 mph 999.5mb 41f 42f
10:00 2 5 mph 999.5mb 41f 42f
9:54 2 3 mph 999.4mb 41f 42f
9:48 2 5 mph 999.3mb 41f 42f
9:36 1 5 mph 999.3mb 42f 43f
9:30 3 6 mph 999.3mb 42f 43f
9:24 5 8 mph 999.2mb 41f 43f
9:18 5 8 mph 999.4mb 41f 43f
9:12 5 9 mph 999.5mb 42f 44f
9:06 6 8 mph 999.6mb 42f 43f
9:00 3 7 mph 999.6mb 42f 43f
8:54 5 8 mph 999.5mb 42f 43f
8:48 6 8 mph 999.4mb 42f 43f
8:36 5 8 mph 999.3mb 42f 43f
8:30 5 9 mph 999.3mb 42f 44f
8:24 6 8 mph 999.4mb 42f 44f
8:18 6 9 mph 999.4mb 42f 44f
8:12 6 10 mph 999.4mb 42f 44f
8:06 5 9 mph 999.4mb 42f 44f
8:00 6 13 mph 999.5mb 42f 44f
7:54 3 11 mph 999.5mb 42f 44f
7:48 7 11 mph 999.4mb 42f 44f
7:36 6 10 mph 999.2mb 41f 44f
7:30 8 14 mph 999.1mb 42f 44f
7:24 6 7 mph 999.1mb 42f 45f
7:18 6 11 mph 999mb 42f 45f
7:12 6 11 mph 998.9mb 42f 45f
7:06 5 13 mph 998.8mb 42f 45f
7:00 7 11 mph 998.7mb 42f 45f
6:54 6 9 mph 998.5mb 42f 45f
6:48 6 10 mph 998.3mb 42f 45f
6:36 6 9 mph 998.4mb 42f 45f
6:30 6 13 mph 998.2mb 42f 46f
6:24 6 10 mph 998.3mb 42f 46f
6:18 8 14 mph 998.2mb 42f 46f
6:12 8 13 mph 998.2mb 42f 46f
6:06 7 18 mph 998.1mb 42f 46f
6:00 8 14 mph 997.9mb 42f 46f
5:54 3 8 mph 997.8mb 42f 46f
5:48 5 10 mph 997.7mb 42f 46f
5:36 5 9 mph 997.5mb 42f 46f
5:30 5 6 mph 997.3mb 42f 46f
5:24 5 6 mph 997.3mb 42f 46f
5:18 3 6 mph 997.2mb 42f 47f
5:12 3 8 mph 997.1mb 42f 47f
5:06 5 7 mph 997.1mb 42f 47f
5:00 3 7 mph 997.1mb 42f 47f
4:54 5 7 mph 997.1mb 42f 47f
4:48 3 5 mph 997mb 42f 47f
4:36 3 8 mph 996.7mb 42f 47f
4:30 3 5 mph 996.7mb 41f 47f
4:24 5 6 mph 996.6mb 41f 47f
4:18 3 5 mph 996.6mb 41f 47f
4:12 3 6 mph 996.5mb 41f 47f
4:06 2 8 mph 996.5mb 41f 47f
4:00 3 5 mph 996.4mb 41f 47f
3:54 5 6 mph 996.3mb 41f 48f
3:48 6 9 mph 996.2mb 41f 48f
3:36 6 8 mph 996.1mb 41f 48f
3:30 6 10 mph 996mb 41f 48f
3:24 5 9 mph 995.9mb 41f 48f
3:18 3 7 mph 995.8mb 41f 48f
3:12 5 7 mph 995.8mb 41f 47f
3:06 3 7 mph 995.7mb 41f 47f
3:00 2 7 mph 995.7mb 41f 46f
2:54 5 6 mph 995.6mb 41f 46f
2:48 5 6 mph 995.6mb 41f 46f
2:36 2 7 mph 995.5mb 41f 46f
2:30 5 6 mph 995.4mb 41f 46f
2:24 5 8 mph 995.3mb 41f 46f
2:18 5 8 mph 995.3mb 41f 45f
2:12 5 9 mph 995.2mb 41f 45f
2:06 6 8 mph 995.1mb 41f 45f
2:00 5 11 mph 995mb 41f 45f
1:54 5 10 mph 995mb 41f 45f
1:48 6 10 mph 994.9mb 41f 45f
1:36 3 6 mph 994.9mb 41f 45f
1:30 5 8 mph 994.8mb 41f 45f
1:24 6 13 mph 994.8mb 41f 45f
1:18 6 10 mph 994.7mb 41f 45f
1:12 7 11 mph 994.7mb 41f 45f
1:06 6 13 mph 994.6mb 41f 45f
1:00 6 10 mph 994.6mb 41f 45f
12:54 7 14 mph 994.6mb 41f 45f
12:48 11 18 mph 994.6mb 41f 45f
12:36 14 18 mph 994.4mb 41f 45f
12:30 11 21 mph 994.3mb 41f 45f
12:24 13 25 mph 994.3mb 41f 45f
12:18 17 28 mph 994.2mb 41f 46f
12:12 14 23 mph 994.2mb 41f 46f
12:06 14 20 mph 994.1mb 41f 45f
12:00 14 23 mph 994.1mb 41f 46f
11:54 17 26 mph 994mb 41f 47f
11:48 11 18 mph 993.9mb 41f 47f
11:36 8 16 mph 993.7mb 41f 47f
11:30 8 15 mph 993.7mb 41f 46f
11:24 7 14 mph 993.6mb 41f 45f
11:18 5 10 mph 993.7mb 41f 45f
11:12 2 6 mph 993.6mb 41f 44f
11:06 3 6 mph 993.5mb 41f 44f
11:00 5 6 mph 993.5mb 41f 43f
10:54 5 7 mph 993.4mb 41f 43f
10:48 6 7 mph 993.4mb 41f 43f
10:36 5 8 mph 993.2mb 41f 42f
10:30 6 8 mph 993.1mb 41f 42f
10:24 5 9 mph 993.1mb 41f 42f
10:18 6 8 mph 993mb 41f 42f
10:12 6 8 mph 993mb 41f 42f
10:06 6 7 mph 992.9mb 41f 42f
10:00 6 8 mph 992.8mb 41f 41f
9:54 6 10 mph 992.7mb 41f 41f
9:48 7 9 mph 992.6mb 41f 41f
9:36 7 10 mph 992.6mb 41f 40f
9:30 6 9 mph 992.5mb 41f 40f
9:24 6 8 mph 992.4mb 41f 40f
9:18 7 8 mph 992.3mb 41f 40f
9:12 6 8 mph 992.2mb 41f 40f
9:06 5 8 mph 992.1mb 41f 40f
9:00 5 8 mph 992mb 41f 40f
8:54 6 8 mph 992mb 41f 40f
8:48 5 7 mph 991.9mb 41f 40f
8:36 6 8 mph 991.9mb 41f 40f
8:30 6 8 mph 991.8mb 41f 40f
8:24 6 8 mph 991.7mb 41f 40f
8:18 5 8 mph 991.6mb 42f 40f
8:12 6 8 mph 991.5mb 42f 40f
8:06 6 9 mph 991.4mb 42f 40f
8:00 3 9 mph 991.4mb 42f 40f
7:54 6 8 mph 991.3mb 42f 40f
7:48 5 8 mph 991.1mb 42f 40f
7:36 5 9 mph 991mb 42f 40f
7:30 6 8 mph 990.9mb 42f 40f
7:24 6 7 mph 990.9mb 42f 40f
7:18 5 7 mph 990.8mb 41f 40f
7:12 6 9 mph 990.7mb 42f 40f
7:06 6 8 mph 990.7mb 41f 40f
7:00 6 8 mph 990.6mb 42f 40f
6:54 5 9 mph 990.6mb 41f 40f
6:48 3 9 mph 990.5mb 41f 40f
6:36 5 7 mph 990.4mb 42f 40f
6:30 6 8 mph 990.4mb 41f 40f
6:24 6 8 mph 990.4mb 41f 40f
6:18 5 7 mph 990.3mb 41f 40f
6:12 5 7 mph 990.3mb 42f 40f
6:06 6 7 mph 990.2mb 41f 40f
6:00 5 8 mph 990.1mb 41f 40f
5:54 5 7 mph 990.1mb 41f 40f
5:48 5 7 mph 990mb 42f 40f
5:36  -  mph 989.9mb 41f -
5:30  -  mph 989.8mb 41f -
5:24  -  mph 989.8mb 41f -
5:18  -  mph 989.8mb 41f -
5:12  -  mph 989.8mb 41f -
5:06  -  mph 989.7mb 41f -
5:00  -  mph 989.7mb 41f -
4:54  -  mph 989.7mb 41f -
4:48  -  mph 989.7mb 41f -
4:36 5 6 mph 989.6mb 41f 40f
4:30 5 7 mph 989.6mb 41f 40f
4:24 6 8 mph 989.6mb 41f 40f
4:18 6 7 mph 989.6mb 41f 40f
4:12 5 7 mph 989.5mb 41f 40f
4:06 5 6 mph 989.5mb 41f 40f
4:00 5 8 mph 989.5mb 41f 40f
3:54 6 7 mph 989.5mb 41f 40f
3:48 5 8 mph 989.4mb 41f 41f
3:36 6 8 mph 989.3mb 41f 41f
3:30 6 9 mph 989.3mb 41f 40f
3:24 6 7 mph 989.3mb 41f 40f
3:18 5 9 mph 989.2mb 41f 40f
3:12 6 8 mph 989.2mb 41f 40f
3:06 6 8 mph 989.2mb 41f 40f
3:00 6 8 mph 989.2mb 41f 40f
2:54 6 8 mph 989.1mb 41f 40f
2:48 6 8 mph 989.1mb 41f 40f
2:36 5 7 mph 989mb 41f 40f
2:30 6 8 mph 989mb 41f 40f
2:24 6 7 mph 988.9mb 41f 40f
2:18 6 9 mph 988.9mb 41f 40f
2:12 6 8 mph 988.9mb 41f 40f
2:06 5 8 mph 988.8mb 41f 40f
2:00 6 8 mph 988.7mb 41f 41f
1:54 6 8 mph 988.6mb 41f 41f
1:48 6 7 mph 988.6mb 41f 41f
1:36 3 7 mph 988.5mb 41f 41f
1:30 6 8 mph 988.5mb 41f 41f
1:24 5 7 mph 988.4mb 41f 41f
1:18 6 8 mph 988.3mb 41f 41f
1:12 7 9 mph 988.2mb 41f 41f
1:06 6 9 mph 988.2mb 41f 41f
1:00 6 9 mph 988.2mb 41f 41f
12:54 6 8 mph 988.1mb 41f 41f
12:48 6 8 mph 988.1mb 41f 41f
12:36 5 8 mph 988.1mb 41f 41f
12:30 5 8 mph 988.1mb 41f 41f
12:24 6 8 mph 988mb 41f 41f
12:18 5 8 mph 988mb 41f 41f
12:12 6 9 mph 988mb 41f 41f
12:06 5 7 mph 987.9mb 41f 41f
12:00 5 9 mph 987.9mb 41f 41f
ven. 01/20 11:54 5 8 mph 987.8mb 41f 41f
11:48 6 8 mph 987.9mb 41f 41f
11:36 6 9 mph 987.8mb 41f 41f
11:30 7 10 mph 987.8mb 41f 41f
11:24 5 9 mph 987.8mb 41f 41f
11:18 7 10 mph 987.8mb 41f 41f
11:12 7 9 mph 987.7mb 41f 41f
11:06 6 8 mph 987.7mb 41f 41f
11:00 5 8 mph 987.6mb 41f 41f
10:54 7 9 mph 987.5mb 41f 41f
10:48 6 9 mph 987.5mb 41f 41f
10:36 6 11 mph 987.5mb 41f 41f
10:30 6 10 mph 987.4mb 41f 42f
10:24 6 9 mph 987.3mb 41f 42f
10:18 6 8 mph 987.3mb 41f 42f
10:12 6 9 mph 987.2mb 41f 42f
10:06 6 10 mph 987.2mb 41f 42f
10:00 6 10 mph 987.2mb 41f 42f
9:54 7 9 mph 987.1mb 41f 42f
9:48 6 8 mph 987.2mb 41f 42f
9:36 3 8 mph 987.1mb 41f 42f
9:30 6 8 mph 987.1mb 41f 42f
9:24 5 7 mph 987.1mb 41f 42f
9:18 5 6 mph 987mb 41f 42f
9:12 5 6 mph 987mb 41f 42f
9:06 3 6 mph 987mb 41f 42f
9:00 3 7 mph 987mb 41f 42f
8:54 5 7 mph 986.9mb 41f 42f
8:48 3 5 mph 986.9mb 41f 42f
8:36 3 6 mph 986.8mb 41f 42f
8:30 3 5 mph 986.8mb 41f 42f
8:24 2 7 mph 986.7mb 41f 42f
8:18 3 6 mph 986.7mb 41f 42f
8:12 3 6 mph 986.7mb 41f 42f
8:06 3 5 mph 986.6mb 41f 42f
8:00 3 5 mph 986.5mb 41f 42f
7:54 3 5 mph 986.5mb 41f 42f
7:48 2 5 mph 986.5mb 41f 42f
7:36 5 6 mph 986.4mb 41f 43f
7:30 2 5 mph 986.3mb 42f 43f
7:24 3
mph
986.2mb 42f 43f
7:18 2 5 mph 986.2mb 41f 43f
7:12 3 6 mph 986.2mb 41f 43f
7:06 3 6 mph 986.1mb 42f 43f
7:00 3 7 mph 986.1mb 41f 43f
6:54 2 5 mph 986mb 41f 43f
6:48 3 6 mph 986mb 41f 43f
6:36 3 6 mph 985.9mb 41f 43f
6:30 3 7 mph 985.9mb 41f 43f
6:24 3 7 mph 985.8mb 41f 43f
6:18 3 7 mph 985.8mb 41f 43f
6:12 5 7 mph 985.7mb 41f 43f
6:06 5 6 mph 985.6mb 41f 43f
6:00 5 7 mph 985.5mb 41f 43f
5:54 5 7 mph 985.4mb 41f 43f
5:48 3 7 mph 985.4mb 41f 43f
5:36 3 6 mph 985.3mb 41f 44f
5:30 3 6 mph 985.3mb 41f 44f
5:24 3 5 mph 985.3mb 41f 44f
5:18 2 5 mph 985.3mb 41f 44f
5:12 3 6 mph 985.2mb 41f 44f
5:06 1 3 mph 985.3mb 41f 44f
5:00 3 5 mph 985.3mb 42f 44f
4:54 2 6 mph 985.2mb 41f 44f
4:48 3 6 mph 985.1mb 41f 44f
4:36 2 5 mph 985.1mb 41f 44f
4:30 5
mph
985.1mb 41f 44f
4:24 3 5 mph 985.1mb 41f 44f
4:18 2 3 mph 985.1mb 41f 45f
4:12 2 3 mph 985.1mb 41f 45f
4:06 2 3 mph 985mb 41f 45f
4:00 1 2 mph 985.1mb 41f 45f
3:54 1 2 mph 985mb 41f 45f
3:48 2 3 mph 984.9mb 41f 45f
3:36 2 3 mph 984.9mb 41f 45f
3:30 2 6 mph 985mb 41f 45f
3:24 2 5 mph 984.9mb 41f 45f
3:18 5 6 mph 984.8mb 41f 45f
3:12 5 6 mph 984.8mb 41f 45f
3:06 5 7 mph 984.7mb 41f 45f
3:00 3 8 mph 984.6mb 41f 45f
2:54 6 7 mph 984.5mb 41f 45f
2:48 2 5 mph 984.5mb 41f 45f
2:36 5 7 mph 984.4mb 41f 45f
2:30 3 6 mph 984.4mb 41f 45f
2:24 3 6 mph 984.4mb 41f 45f
2:18 5 7 mph 984.4mb 41f 45f
2:12 3 6 mph 984.3mb 41f 45f
2:06 3 5 mph 984.3mb 41f 46f
2:00 2 5 mph 984.3mb 41f 46f
1:54 3 7 mph 984.3mb 41f 46f
1:48 5 6 mph 984.4mb 41f 46f
1:36 5 8 mph 984.3mb 41f 46f
1:30 5 7 mph 984.2mb 41f 46f
1:24 5 9 mph 984.2mb 41f 46f
1:18 6 10 mph 984.2mb 41f 46f
1:12 6 11 mph 984.2mb 41f 45f
1:06 7 9 mph 984.2mb 41f 45f
1:00 7 10 mph 984.1mb 41f 45f
12:54 7 11 mph 984mb 41f 45f
12:48 6 9 mph 984.1mb 41f 45f
12:36 6 9 mph 984.1mb 41f 45f
12:30 7 9 mph 984.2mb 41f 45f
12:24 7 10 mph 984.2mb 41f 45f
12:18 7 11 mph 984.3mb 41f 45f
12:12 9 13 mph 984.3mb 41f 45f
12:06 7 13 mph 984.4mb 41f 44f
12:00 8 10 mph 984.4mb 41f 44f
11:54 7 11 mph 984.4mb 41f 44f
11:48 6 10 mph 984.5mb 41f 44f
11:36 8 13 mph 984.6mb 41f 44f
11:30 8 14 mph 984.7mb 41f 44f
11:24 6 11 mph 984.6mb 41f 44f
11:18 7 13 mph 984.6mb 41f 43f
11:12 8 11 mph 984.6mb 41f 43f
11:06 8 13 mph 984.7mb 41f 43f
11:00 6 14 mph 984.8mb 41f 43f
10:54 6 11 mph 984.8mb 41f 43f
10:48 8 11 mph 984.9mb 41f 43f
10:36 7 13 mph 984.9mb 41f 43f
10:30 7 11 mph 984.9mb 41f 42f
10:24 7 11 mph 984.9mb 41f 42f
10:18 7 11 mph 985.1mb 41f 42f
10:12 7 10 mph 985mb 41f 42f
10:06 6 11 mph 985.1mb 41f 42f
10:00 7 11 mph 985mb 41f 42f
9:54 6 10 mph 985mb 41f 41f
9:48 7 11 mph 985mb 41f 41f
9:36 9 13 mph 985mb 41f 41f
9:30 7 13 mph 985mb 41f 41f
9:24 7 13 mph 985.1mb 41f 41f
9:18 7 11 mph 985.1mb 41f 41f